createdAt,value
2023-01-30T00:03:24.989Z,0.2
2023-01-30T00:08:23.921Z,0.3
2023-01-30T00:13:23.937Z,0.3
2023-01-30T00:18:23.955Z,0.3
2023-01-30T00:23:23.959Z,0.2
2023-01-30T00:28:24.444Z,0.2
2023-01-30T00:33:23.903Z,0.2
2023-01-30T00:38:23.914Z,0.2
2023-01-30T00:43:24.443Z,0.2
2023-01-30T00:48:23.920Z,0.2
2023-01-30T00:53:23.916Z,0.2
2023-01-30T00:58:23.958Z,0.1
2023-01-30T01:03:23.969Z,0.2
2023-01-30T01:08:23.920Z,0.3
2023-01-30T01:13:24.016Z,0.3
2023-01-30T01:18:25.213Z,0.2
2023-01-30T01:23:24.105Z,0.3
2023-01-30T01:28:24.009Z,0.3
2023-01-30T01:33:24.243Z,0.2
2023-01-30T01:38:24.433Z,0.2
2023-01-30T01:43:23.955Z,0.2
2023-01-30T01:48:24.256Z,0.2
2023-01-30T01:53:24.029Z,0.2
2023-01-30T01:58:24.015Z,0.2
2023-01-30T02:03:23.972Z,0.2
2023-01-30T02:08:23.952Z,0.3
2023-01-30T02:13:24.036Z,0.3
2023-01-30T02:18:24.415Z,0.2
2023-01-30T02:23:23.997Z,0.3
2023-01-30T02:28:24.011Z,0.2
2023-01-30T02:33:24.019Z,0.2
2023-01-30T02:38:23.982Z,0.3
2023-01-30T02:43:24.141Z,0.2
2023-01-30T02:48:24.434Z,0.2
2023-01-30T02:53:24.047Z,0.2
2023-01-30T02:58:24.018Z,0.2
2023-01-30T03:03:24.450Z,0.2
2023-01-30T03:08:23.993Z,0.3
2023-01-30T03:13:24.058Z,0.2
2023-01-30T03:18:24.519Z,0.2
2023-01-30T03:23:23.964Z,0.2
2023-01-30T03:28:24.501Z,0.1
2023-01-30T03:33:23.997Z,0.2
2023-01-30T03:38:23.975Z,0.2
2023-01-30T03:43:24.038Z,0.2
2023-01-30T03:48:24.342Z,0.2
2023-01-30T03:53:24.965Z,0.2
2023-01-30T03:58:24.247Z,0.2
2023-01-30T04:03:23.990Z,0.2
2023-01-30T04:08:24.022Z,0.2
2023-01-30T04:13:30.818Z,0.2
2023-01-30T04:18:24.021Z,0.2
2023-01-30T04:23:24.022Z,0.3
2023-01-30T04:28:24.309Z,0.3
2023-01-30T04:33:23.988Z,0.2
2023-01-30T04:38:24.049Z,0.2
2023-01-30T04:43:24.002Z,0.1
2023-01-30T04:48:24.246Z,0.2
2023-01-30T04:53:24.075Z,0.3
2023-01-30T04:58:23.970Z,0.3
2023-01-30T05:03:24.454Z,0.3
2023-01-30T05:08:24.263Z,0.2
2023-01-30T05:13:24.036Z,0.2
2023-01-30T05:18:23.990Z,0.3
2023-01-30T05:23:23.965Z,0.2
2023-01-30T05:28:23.971Z,0.2
2023-01-30T05:33:23.999Z,0.1
2023-01-30T05:38:24.098Z,0.2
2023-01-30T05:43:24.089Z,0.2
2023-01-30T05:48:23.965Z,0.2
2023-01-30T05:53:24.031Z,0.2
2023-01-30T05:58:24.003Z,0.2
2023-01-30T06:03:25.046Z,0.2
2023-01-30T06:08:24.046Z,0.2
2023-01-30T06:13:25.411Z,0.2
2023-01-30T06:18:24.084Z,0.2
2023-01-30T06:23:24.023Z,0.2
2023-01-30T06:28:24.013Z,0.2
2023-01-30T06:33:24.037Z,0.2
2023-01-30T06:38:26.024Z,0.1
2023-01-30T06:43:24.027Z,0.2
2023-01-30T06:48:23.998Z,0.2
2023-01-30T06:53:24.028Z,0.2
2023-01-30T06:58:24.103Z,0.2
2023-01-30T07:03:24.021Z,0.2
2023-01-30T07:08:25.032Z,0.3
2023-01-30T07:13:24.078Z,0.3
2023-01-30T07:18:24.067Z,0.3
2023-01-30T07:23:25.256Z,0.3
2023-01-30T07:28:24.019Z,0.2
2023-01-30T07:33:23.991Z,0.4
2023-01-30T07:38:23.999Z,0.5
2023-01-30T07:43:24.205Z,0.6
2023-01-30T07:48:24.047Z,0.5
2023-01-30T07:53:24.029Z,0.6
2023-01-30T07:58:24.252Z,0.5
2023-01-30T08:03:24.013Z,0.6
2023-01-30T08:08:25.124Z,0.12
2023-01-30T08:13:24.067Z,0.28
2023-01-30T08:18:24.044Z,0.31
2023-01-30T08:23:24.044Z,0.26
2023-01-30T08:28:24.010Z,0.24
2023-01-30T08:33:24.021Z,0.2
2023-01-30T08:38:24.023Z,0.15
2023-01-30T08:43:24.026Z,0.7
2023-01-30T08:48:24.038Z,0.6
2023-01-30T08:53:24.022Z,0.5
2023-01-30T08:58:24.020Z,0.6
2023-01-30T09:03:24.034Z,0.7
2023-01-30T09:08:24.108Z,0.8
2023-01-30T09:13:24.099Z,0.8
2023-01-30T09:18:24.065Z,0.8
2023-01-30T09:23:24.043Z,0.7
2023-01-30T09:28:24.034Z,0.8
2023-01-30T09:33:24.006Z,0.8
2023-01-30T09:38:24.078Z,0.8
2023-01-30T09:43:24.065Z,0.9
2023-01-30T09:48:24.064Z,0.7
2023-01-30T09:53:24.933Z,0.8
2023-01-30T09:58:24.038Z,0.8
2023-01-30T10:03:24.103Z,0.1
2023-01-30T10:08:24.133Z,0.1
2023-01-30T10:13:24.184Z,0.1
2023-01-30T10:18:24.184Z,0.15
2023-01-30T10:28:24.096Z,0.15
2023-01-30T10:33:24.110Z,0.13
2023-01-30T10:38:25.700Z,0.12
2023-01-30T10:43:24.017Z,0.13
2023-01-30T10:48:42.398Z,0.11
2023-01-30T10:53:24.016Z,0.9
2023-01-30T10:58:24.023Z,0.8
2023-01-30T11:03:24.559Z,0.9
2023-01-30T11:08:24.042Z,0.9
2023-01-30T11:13:24.057Z,0.8
2023-01-30T11:19:16.504Z,0.8
2023-01-30T11:23:25.299Z,0.6
2023-01-30T11:28:24.016Z,0.7
2023-01-30T11:33:25.074Z,0.5
2023-01-30T11:38:24.114Z,0.6
2023-01-30T11:43:24.049Z,0.5
2023-01-30T11:48:31.582Z,0.7
2023-01-30T11:53:24.035Z,0.6
2023-01-30T11:58:24.120Z,0.6
2023-01-30T12:03:24.077Z,0.5
2023-01-30T12:08:40.448Z,0.6
2023-01-30T12:13:24.035Z,0.6
2023-01-30T12:18:24.550Z,0.5
2023-01-30T12:23:25.785Z,0.5
2023-01-30T12:28:24.053Z,0.5
2023-01-30T12:33:24.041Z,0.5
2023-01-30T12:38:24.064Z,0.5
2023-01-30T12:43:24.074Z,0.6
2023-01-30T12:48:24.727Z,0.12
2023-01-30T12:53:24.066Z,0.12
2023-01-30T12:58:24.085Z,0.9
2023-01-30T13:03:24.051Z,0.9
2023-01-30T13:08:24.085Z,0.1
2023-01-30T13:13:24.233Z,0.17
2023-01-30T13:18:24.112Z,0.36
2023-01-30T13:23:25.850Z,0.31
2023-01-30T13:28:27.111Z,0.24
2023-01-30T13:33:24.052Z,0.24
2023-01-30T13:38:24.033Z,0.18
2023-01-30T13:43:24.195Z,0.24
2023-01-30T13:48:24.065Z,0.2
2023-01-30T13:53:24.351Z,0.2
2023-01-30T13:58:24.315Z,0.1
2023-01-30T14:03:24.048Z,0.11
2023-01-30T14:08:24.055Z,0.1
2023-01-30T14:13:24.086Z,0.14
2023-01-30T14:18:24.104Z,0.1
2023-01-30T14:23:27.388Z,0.12
2023-01-30T14:28:24.079Z,0.12
2023-01-30T14:33:24.067Z,0.12
2023-01-30T14:38:24.163Z,0.12
2023-01-30T14:43:24.078Z,0.14
2023-01-30T14:48:25.124Z,0.17
2023-01-30T14:53:24.059Z,0.21
2023-01-30T14:58:24.074Z,0.17
2023-01-30T15:03:24.099Z,0.21
2023-01-30T15:08:24.081Z,0.16
2023-01-30T15:13:24.082Z,0.11
2023-01-30T15:18:24.264Z,0.8
2023-01-30T15:23:25.159Z,0.6
2023-01-30T15:28:24.089Z,0.6
2023-01-30T15:33:31.226Z,0.6
2023-01-30T15:38:24.072Z,0.4
2023-01-30T15:43:24.155Z,0.3
2023-01-30T15:48:24.083Z,0.3
2023-01-30T15:53:24.104Z,0.2
2023-01-30T15:58:24.108Z,0.2
2023-01-30T16:03:24.066Z,0.2
2023-01-30T16:08:24.387Z,0.2
2023-01-30T16:13:24.138Z,0.2
2023-01-30T16:18:24.081Z,0.2
2023-01-30T16:36:02.612Z,0.1
2023-01-30T16:40:51.404Z,0.2
2023-01-30T16:45:51.294Z,0.2
2023-01-30T16:50:59.347Z,0.2
2023-01-30T16:55:51.453Z,0.2
2023-01-30T17:00:51.165Z,0.2
2023-01-30T17:05:51.566Z,0.2
2023-01-30T17:10:51.282Z,0.2
2023-01-30T17:15:51.305Z,0.2
2023-01-30T17:20:53.673Z,0.2
2023-01-30T17:25:51.201Z,0.2
2023-01-30T17:30:51.230Z,0.3
2023-01-30T17:35:55.861Z,0.2
2023-01-30T17:40:51.569Z,0.2
2023-01-30T17:45:51.159Z,0.1
2023-01-30T17:50:51.171Z,0.2
2023-01-30T17:55:51.175Z,0.2
2023-01-30T18:00:51.168Z,0.2
2023-01-30T18:05:56.387Z,0.2
2023-01-30T18:10:51.182Z,0.2
2023-01-30T18:15:51.172Z,0.2
2023-01-30T18:20:53.496Z,0.1
2023-01-30T18:25:51.217Z,0.1
2023-01-30T18:30:51.243Z,0.2
2023-01-30T18:35:53.251Z,0.2
2023-01-30T18:40:51.221Z,0.2
2023-01-30T18:45:51.171Z,0.2
2023-01-30T18:50:53.622Z,0.2
2023-01-30T18:55:51.172Z,0.2
2023-01-30T19:00:51.120Z,0.2
2023-01-30T19:05:53.455Z,0.2
2023-01-30T19:10:51.179Z,0.2
2023-01-30T19:15:51.239Z,0.2
2023-01-30T19:20:51.367Z,0.2
2023-01-30T19:25:51.219Z,0.2
2023-01-30T19:30:51.268Z,0.2
2023-01-30T19:35:59.269Z,0.2
2023-01-30T19:40:51.387Z,0.2
2023-01-30T19:45:51.137Z,0.2
2023-01-30T19:50:52.261Z,0.2
2023-01-30T19:55:51.207Z,0.2
2023-01-30T20:00:51.143Z,0.2
2023-01-30T20:05:53.744Z,0.2
2023-01-30T20:10:51.272Z,0.2
2023-01-30T20:15:51.299Z,0.2
2023-01-30T20:20:53.988Z,0.3
2023-01-30T20:25:51.275Z,0.2
2023-01-30T20:30:51.290Z,0.2
2023-01-30T20:35:57.809Z,0.2
2023-01-30T20:40:51.206Z,0.2
2023-01-30T20:45:51.177Z,0.1
2023-01-30T20:50:54.936Z,0.2
2023-01-30T20:55:51.233Z,0.1
2023-01-30T21:00:51.198Z,0.2
2023-01-30T21:05:54.027Z,0.3
2023-01-30T21:10:51.246Z,0.2
2023-01-30T21:15:51.210Z,0.2
2023-01-30T21:20:54.055Z,0.1
2023-01-30T21:25:51.215Z,0.2
2023-01-30T21:30:51.329Z,0.3
2023-01-30T21:35:53.683Z,0.1
2023-01-30T21:40:51.252Z,0.2
2023-01-30T21:45:51.222Z,0.1
2023-01-30T21:50:55.297Z,0.2
2023-01-30T21:55:51.267Z,0.2
2023-01-30T22:00:51.178Z,0.2
2023-01-30T22:05:53.757Z,0.3
2023-01-30T22:10:51.180Z,0.2
2023-01-30T22:15:51.232Z,0.2
2023-01-30T22:20:51.926Z,0.2
2023-01-30T22:25:51.173Z,0.2
2023-01-30T22:30:51.549Z,0.2
2023-01-30T22:35:54.693Z,0.2
2023-01-30T22:40:51.376Z,0.3
2023-01-30T22:45:51.144Z,0.2
2023-01-30T22:50:55.273Z,0.3
2023-01-30T22:55:51.258Z,0.2
2023-01-30T23:00:51.200Z,0.2
2023-01-30T23:05:54.125Z,0.2
2023-01-30T23:10:51.320Z,0.1
2023-01-30T23:15:51.168Z,0.1
2023-01-30T23:20:57.213Z,0.1
2023-01-30T23:25:51.329Z,0.2
2023-01-30T23:30:51.310Z,0.3
2023-01-30T23:35:54.168Z,0.2
2023-01-30T23:40:51.290Z,0.1
2023-01-30T23:45:51.285Z,0.1
2023-01-30T23:50:54.623Z,0.2
2023-01-30T23:55:51.244Z,0.2
